Orbital elements of COSMOS 2251 DEB
| Launched | 15 June 1993 |
| Flight ended | – |
| Launch site | Plesetsk Missile and Space Complex, Russia |
| Owner | Commonwealth of Independent States (former USSR) |
| NORAD ID | 35835 |
| Date fetched |
Epoch osculation |
Inc. [°] |
Ecc. | RA asc node [hr] |
Arg Peri. [°] |
Mean anom [°] |
Mean motion [rev/day] |
Abs. mag |
| Date fetched |
Epoch osculation |
Inc. [°] |
Ecc. | RA asc node [hr] |
Arg Peri. [°] |
Mean anom [°] |
Mean motion [rev/day] |
Abs. mag |
| 2026 May 07 17:58 | 2026 May 05 10:39:09 | 74.0632 | 0.02949 | 1.7794 | 135.5201 | 227.0015 | 13.83371 | – |
| 2026 May 06 17:57 | 2026 May 05 10:39:09 | 74.0632 | 0.02949 | 1.7794 | 135.5201 | 227.0015 | 13.83371 | – |
| 2026 May 05 17:57 | 2026 May 05 10:39:09 | 74.0632 | 0.02949 | 1.7794 | 135.5201 | 227.0015 | 13.83371 | – |
| 2026 May 04 17:57 | 2026 Apr 29 12:20:00 | 74.0631 | 0.02946 | 2.4446 | 146.9471 | 227.0015 | 13.83371 | – |
| 2026 May 03 17:57 | 2026 Apr 29 12:20:00 | 74.0631 | 0.02946 | 2.4446 | 146.9471 | 227.0015 | 13.83371 | – |
| 2026 May 02 17:57 | 2026 Apr 29 12:20:00 | 74.0631 | 0.02946 | 2.4446 | 146.9471 | 227.0015 | 13.83371 | – |
| 2026 May 01 17:56 | 2026 Apr 29 12:20:00 | 74.0631 | 0.02946 | 2.4446 | 146.9471 | 227.0015 | 13.83371 | – |
| 2026 Apr 30 17:56 | 2026 Apr 29 12:20:00 | 74.0631 | 0.02946 | 2.4446 | 146.9471 | 227.0015 | 13.83371 | – |
| 2026 Apr 29 17:57 | 2026 Apr 22 01:33:49 | 74.0623 | 0.02946 | 3.2802 | 161.3199 | 227.0015 | 13.83371 | – |
| 2026 Apr 28 17:56 | 2026 Apr 22 01:33:49 | 74.0623 | 0.02946 | 3.2802 | 161.3199 | 227.0015 | 13.83371 | – |
| 2026 Apr 27 17:58 | 2026 Apr 22 01:33:49 | 74.0623 | 0.02946 | 3.2802 | 161.3199 | 227.0015 | 13.83371 | – |
| 2026 Apr 26 17:58 | 2026 Apr 22 01:33:49 | 74.0623 | 0.02946 | 3.2802 | 161.3199 | 227.0015 | 13.83371 | – |
| 2026 Apr 25 17:58 | 2026 Apr 22 01:33:49 | 74.0623 | 0.02946 | 3.2802 | 161.3199 | 227.0015 | 13.83371 | – |
| 2026 Apr 24 17:59 | 2026 Apr 22 01:33:49 | 74.0623 | 0.02946 | 3.2802 | 161.3199 | 227.0015 | 13.83371 | – |
| 2026 Apr 23 17:57 | 2026 Apr 18 02:06:11 | 74.0620 | 0.02946 | 3.7264 | 168.9887 | 227.0015 | 13.83371 | – |
| 2026 Apr 22 17:57 | 2026 Apr 18 02:06:11 | 74.0620 | 0.02946 | 3.7264 | 168.9887 | 227.0015 | 13.83371 | – |
| 2026 Apr 21 17:57 | 2026 Apr 18 02:06:11 | 74.0620 | 0.02946 | 3.7264 | 168.9887 | 227.0015 | 13.83371 | – |
| 2026 Apr 20 17:57 | 2026 Apr 18 02:06:11 | 74.0620 | 0.02946 | 3.7264 | 168.9887 | 227.0015 | 13.83371 | – |
| 2026 Apr 19 17:58 | 2026 Apr 18 02:06:11 | 74.0620 | 0.02946 | 3.7264 | 168.9887 | 227.0015 | 13.83371 | – |
| 2026 Apr 18 17:56 | 2026 Apr 11 13:53:38 | 74.0618 | 0.02949 | 4.4567 | 181.5663 | 227.0015 | 13.83371 | – |
| 2026 Apr 16 17:57 | 2026 Apr 11 13:53:38 | 74.0618 | 0.02949 | 4.4567 | 181.5663 | 227.0015 | 13.83371 | – |
| 2026 Apr 14 17:57 | 2026 Apr 11 13:53:38 | 74.0618 | 0.02949 | 4.4567 | 181.5663 | 227.0015 | 13.83371 | – |
| 2026 Apr 13 17:57 | 2026 Apr 11 13:53:38 | 74.0618 | 0.02949 | 4.4567 | 181.5663 | 227.0015 | 13.83371 | – |
| 2026 Apr 12 17:57 | 2026 Apr 05 15:34:08 | 74.0606 | 0.02951 | 5.1219 | 192.9315 | 227.0015 | 13.83371 | – |
| 2026 Apr 11 17:57 | 2026 Apr 05 15:34:08 | 74.0606 | 0.02951 | 5.1219 | 192.9315 | 227.0015 | 13.83371 | – |
| 2026 Apr 10 17:58 | 2026 Apr 05 15:34:08 | 74.0606 | 0.02951 | 5.1219 | 192.9315 | 227.0015 | 13.83371 | – |